SBOSBO PHX / KPHX
Speedbird OnlineSpeedbird Online PHX / KPHX

Phoenix Sky Harbor International Airport
08:17 21.4°C

Location Phoenix, United States
Latitude: 33.43429946899414
Longitude: -112.01200103759766
Local Time 08:17 on 17 Apr 2024
UTC -7 hours (America/Phoenix)
Currency £1 equals USD 1.25
METAR KPHX 171451Z 11008KT 10SM CLR 21/00 A2997 RMK AO2 SLP133 T02060000 53013
TAF KPHX 171120Z 1712/1818 10005KT P6SM SKC FM172000 26007KT P6SM SKC FM180800 10005KT P6SM SCT250
Weather As Of 17 Apr 2024 08:17
Description Clear sky
Wind 15 km/h from East (110°)
Cloud Cover 0%
Precipitation Rain: none, Snow: none
Sunrise 05:54
Sunset 19:00
NOTAM 59 active NOTAM
Rotations During the last 90 days there were
88 flights from LHR
5 flights from SAN
81 flights to LHR
22 flights to SAN
Lounges Escape Lounge , Terminal 4
American Airlines Admirals Club, Terminal 4
American Airlines Admirals Club, Terminal 4
American Airlines Admirals Club, Terminal 4
Web Airport Website | Wikipedia
Codes IATA: PHX
ICAO: KPHX
Altitude 346 Meter / 1135 Feet
Distance 8,492 KM / 5,277 Miles
from London.
Runways
RunwayLength (m)Surface
07L3139Asphalt
07R2377Concrete
083502Concrete
25L2377Concrete
25R3139Asphalt
263502Concrete
Radio
TypeDescriptionFrequency
A/DAPP/DEP124.1
ATISATIS127.575
CLDCLNC DEL118.1
GNDGND119.75
POSTANG COMD POST140
RDOPRESCOTT RDO122.2
TWRTWR118.7
UNICUNICOM122.95
Live ATC



Support Speedbird Online

© 2017-2024 Speedbird Online